Saturday, March 28, 2015, 7:00 AM EDT

KFDK, Frederick, Frederick Municipal Airport

Location: Frederick, MD, United States Lat: 39.417
Local Time: 7:00 AM EDT (11:00 GMT) Lon: -77.374
Time Zone: US/Eastern Elev: 301 ft

Show me the last for .
Show Decoded

2015-03-28 06:25 METAR KFDK 281025Z AUTO 30013G18KT 10SM SCT038 M01/M11 A2996 RMK AO2 =
2015-03-28 06:05 METAR KFDK 281005Z AUTO 31009KT 10SM SCT038 M01/M10 A2995 RMK AO2 =
2015-03-28 05:45 METAR KFDK 280945Z AUTO 30010KT 10SM CLR 00/M10 A2995 RMK AO2 =
2015-03-28 05:25 METAR KFDK 280925Z AUTO 30008KT 10SM CLR 00/M09 A2994 RMK AO2 =
2015-03-28 05:05 METAR KFDK 280905Z AUTO 30009KT 10SM SCT095 00/M09 A2992 =
2015-03-28 04:45 METAR KFDK 280845Z AUTO 33007KT 10SM OVC095 00/M09 A2992 RMK AO2 =
2015-03-28 04:25 METAR KFDK 280825Z AUTO 33005KT 10SM OVC095 00/M09 A2991 RMK AO2 =
2015-03-28 04:05 METAR KFDK 280805Z AUTO 33008KT 10SM OVC095 01/M10 A2992 RMK AO2 =
2015-03-28 03:25 METAR KFDK 280725Z AUTO 32009KT 10SM OVC095 01/M10 A2992 RMK AO2 =
2015-03-28 03:05 METAR KFDK 280705Z AUTO 33007KT 10SM OVC095 01/M11 A2991 RMK AO2 =
2015-03-28 02:25 METAR KFDK 280625Z AUTO 32010G15KT 10SM OVC085 01/M09 A2992 =
2015-03-28 02:05 METAR KFDK 280605Z AUTO 33011G14KT 10SM SCT085 01/M08 A2991 RMK AO2 =
2015-03-28 01:45 METAR KFDK 280545Z AUTO 32010KT 10SM CLR 02/M07 A2991 RMK AO2 =
2015-03-28 01:25 METAR KFDK 280525Z AUTO 32012G17KT 10SM CLR 02/M07 A2990 RMK AO2 =
2015-03-28 01:05 METAR KFDK 280505Z AUTO 33009G14KT 10SM SCT070 02/M07 A2990 RMK AO2 =
2015-03-28 00:25 METAR KFDK 280425Z AUTO 34007G17KT 10SM OVC070 03/M07 A2990 RMK AO2 =
2015-03-28 00:05 METAR KFDK 280405Z AUTO 34007G15KT 10SM OVC070 03/M06 A2990 RMK AO2 =
2015-03-27 23:45 METAR KFDK 280345Z AUTO 34010G15KT 10SM OVC070 04/M05 A2989 RMK AO2 =
2015-03-27 23:25 METAR KFDK 280325Z AUTO 33008G14KT 10SM OVC070 05/M05 A2989 =
2015-03-27 23:05 METAR KFDK 280305Z AUTO 33009KT 10SM BKN070 05/M06 A2989 RMK AO2 =
2015-03-27 22:45 METAR KFDK 280245Z AUTO 34011KT 10SM OVC070 05/M06 A2988 RMK AO2 =
2015-03-27 22:25 METAR KFDK 280225Z AUTO 33006KT 10SM OVC070 05/M06 A2988 RMK AO2 =
2015-03-27 22:05 METAR KFDK 280205Z AUTO 34008KT 10SM OVC070 06/M06 A2987 RMK AO2 =
2015-03-27 21:45 METAR KFDK 280145Z AUTO 33012G17KT 10SM OVC060 06/M06 A2987 RMK AO2 =
2015-03-27 21:25 METAR KFDK 280125Z AUTO 31009KT 10SM OVC060 06/M07 A2987 RMK AO2 =
2015-03-27 21:05 METAR KFDK 280105Z AUTO 32011G14KT 10SM OVC060 06/M07 A2986 RMK AO2 =
2015-03-27 20:45 METAR KFDK 280045Z AUTO 33006KT 10SM OVC060 07/M07 A2986 RMK AO2 =
2015-03-27 19:49 METAR KFDK 272349Z 33009KT 10SM OVC060 08/M06 A2984 =
2015-03-27 18:49 METAR KFDK 272249Z 33010KT 10SM BKN060 09/M07 A2981 =
2015-03-27 16:49 METAR KFDK 272049Z 34006KT 10SM BKN050 11/M07 A2979 =
2015-03-27 15:50 METAR KFDK 271950Z 31006KT 10SM BKN050 10/M07 A2978 =
2015-03-27 14:48 METAR KFDK 271848Z 32007KT 10SM BKN049 10/M06 A2081 =
2015-03-27 13:49 METAR KFDK 271749Z 35011G15KT 10SM BKN047 09/M05 A2981 =
2015-03-27 12:47 METAR KFDK 271647Z 33010KT 10SM SCT043 BKN049 08/M04 A2983 =
2015-03-27 11:47 METAR KFDK 271547Z 35004KT 10SM BKN044 OVC110 08/M02 A2987 =
2015-03-27 10:55 METAR KFDK 271455Z 34006KT 10SM OVC095 07/M02 A2986 =
2015-03-27 09:50 METAR KFDK 271350Z 33008KT 10SM OVC095 07/M01 A2985 =
2015-03-27 08:45 METAR KFDK 271245Z 35008KT 10SM OVC095 07/M01 A2984 =
2015-03-27 07:45 METAR KFDK 271145Z 35004KT 10SM OVC080 07/02 A2983 =

Support USWX by starting your Amazon purchase here.